createdAt,value
2023-03-15T03:58:56.076Z,42.30
2023-03-15T03:59:56.058Z,42.39
2023-03-15T04:00:56.008Z,42.39
2023-03-15T04:01:55.992Z,42.49
2023-03-15T04:02:56.079Z,42.68
2023-03-15T04:03:55.992Z,42.58
2023-03-15T04:04:56.069Z,42.87
2023-03-15T04:05:55.968Z,42.77
2023-03-15T04:06:55.957Z,42.87
2023-03-15T04:07:55.981Z,42.77
2023-03-15T04:08:55.961Z,42.58
2023-03-15T04:09:55.964Z,42.58
2023-03-15T04:10:55.942Z,42.87
2023-03-15T04:11:55.935Z,42.68
2023-03-15T04:12:55.940Z,42.68
2023-03-15T04:13:55.945Z,42.87
2023-03-15T04:14:55.936Z,42.97
2023-03-15T04:15:55.951Z,42.89
2023-03-15T04:16:55.898Z,42.89
2023-03-15T04:17:56.067Z,42.99
2023-03-15T04:18:55.914Z,42.89
2023-03-15T04:19:55.901Z,43.18
2023-03-15T04:20:55.884Z,43.47
2023-03-15T04:21:55.894Z,43.08
2023-03-15T04:22:55.865Z,43.18
2023-03-15T04:23:55.878Z,43.18
2023-03-15T04:24:55.853Z,43.28
2023-03-15T04:25:55.865Z,43.08
2023-03-15T04:26:55.860Z,43.08
2023-03-15T04:27:55.834Z,43.18
2023-03-15T04:28:55.850Z,43.47
2023-03-15T04:29:55.844Z,43.18
2023-03-15T04:30:55.890Z,43.18
2023-03-15T04:31:55.827Z,43.18
2023-03-15T04:32:55.856Z,43.37
2023-03-15T04:33:55.821Z,43.28
2023-03-15T04:34:55.840Z,43.47
2023-03-15T04:35:55.902Z,43.18
2023-03-15T04:36:55.841Z,43.47
2023-03-15T04:37:55.803Z,42.99
2023-03-15T04:38:55.805Z,42.89
2023-03-15T04:39:55.823Z,42.99
2023-03-15T04:40:55.795Z,42.89
2023-03-15T04:41:55.790Z,42.99
2023-03-15T04:42:55.777Z,42.99
2023-03-15T04:43:55.786Z,42.91
2023-03-15T04:44:55.831Z,42.99
2023-03-15T04:45:55.775Z,43.01
2023-03-15T04:46:55.866Z,42.89
2023-03-15T04:47:55.763Z,42.91
2023-03-15T04:48:55.770Z,43.01
2023-03-15T04:49:55.759Z,42.91
2023-03-15T04:50:55.751Z,43.11
2023-03-15T04:51:55.739Z,42.82
2023-03-15T04:52:55.739Z,42.91
2023-03-15T04:53:55.746Z,42.91
2023-03-15T04:54:55.749Z,42.72
2023-03-15T04:55:55.722Z,43.01
2023-03-15T04:56:55.769Z,42.72
2023-03-15T04:57:55.743Z,42.72
2023-03-15T04:58:55.702Z,43.01
2023-03-15T04:59:55.706Z,42.82
2023-03-15T05:00:55.759Z,43.01
2023-03-15T05:01:55.718Z,42.91
2023-03-15T05:02:55.717Z,42.72
2023-03-15T05:03:55.717Z,42.82
2023-03-15T05:04:55.713Z,42.82
2023-03-15T05:05:55.726Z,42.82
2023-03-15T05:06:55.686Z,42.82
2023-03-15T05:07:55.662Z,42.82
2023-03-15T05:08:55.664Z,42.63
2023-03-15T05:09:55.655Z,42.63
2023-03-15T05:10:55.654Z,42.91
2023-03-15T05:11:55.858Z,42.63
2023-03-15T05:12:55.647Z,42.82
2023-03-15T05:13:55.649Z,42.82
2023-03-15T05:14:55.662Z,42.82
2023-03-15T05:15:55.706Z,42.82
2023-03-15T05:16:55.666Z,42.63
2023-03-15T05:17:55.628Z,42.82
2023-03-15T05:18:55.631Z,42.72
2023-03-15T05:19:55.613Z,42.82
2023-03-15T05:20:55.624Z,42.72
2023-03-15T05:21:55.610Z,42.82
2023-03-15T05:22:55.631Z,43.20
2023-03-15T05:23:55.611Z,42.82
2023-03-15T05:24:55.600Z,42.72
2023-03-15T05:25:55.610Z,42.91
2023-03-15T05:26:55.588Z,42.91
2023-03-15T05:27:55.577Z,42.91
2023-03-15T05:28:55.645Z,43.01
2023-03-15T05:29:55.576Z,43.11
2023-03-15T05:30:55.590Z,43.11
2023-03-15T05:31:55.662Z,43.01
2023-03-15T05:32:55.667Z,42.72
2023-03-15T05:33:55.561Z,42.82
2023-03-15T05:34:55.564Z,42.72
2023-03-15T05:35:55.612Z,42.82
2023-03-15T05:36:55.542Z,42.63
2023-03-15T05:37:55.555Z,42.53
2023-03-15T05:38:55.529Z,42.63
2023-03-15T05:39:55.544Z,42.82
2023-03-15T05:40:55.539Z,42.72
2023-03-15T05:41:55.555Z,42.72
2023-03-15T05:42:55.563Z,42.82
2023-03-15T05:43:55.521Z,42.43
2023-03-15T05:44:55.501Z,43.01
2023-03-15T05:45:55.513Z,42.43
2023-03-15T05:46:55.489Z,43.01
2023-03-15T05:47:55.514Z,42.72
2023-03-15T05:48:55.494Z,42.72
2023-03-15T05:49:55.483Z,42.82
2023-03-15T05:50:55.527Z,42.72
2023-03-15T05:51:55.468Z,42.82
2023-03-15T05:52:55.524Z,42.63
2023-03-15T05:53:55.461Z,42.63
2023-03-15T05:54:55.561Z,42.63
2023-03-15T05:55:55.450Z,42.72
2023-03-15T05:56:55.452Z,42.63
2023-03-15T05:57:55.448Z,42.74
2023-03-15T05:58:55.478Z,42.53
2023-03-15T05:59:55.437Z,42.65
2023-03-15T06:00:55.454Z,42.65
2023-03-15T06:01:55.426Z,42.65
2023-03-15T06:02:55.475Z,42.63
2023-03-15T06:03:55.480Z,42.72
2023-03-15T06:04:55.417Z,42.55
2023-03-15T06:05:55.406Z,42.55
2023-03-15T06:06:55.419Z,42.46
2023-03-15T06:07:55.414Z,42.43
2023-03-15T06:08:55.425Z,42.65
2023-03-15T06:09:55.418Z,42.36
2023-03-15T06:10:55.421Z,42.65
2023-03-15T06:11:55.402Z,42.36
2023-03-15T06:12:55.405Z,42.74
2023-03-15T06:13:55.396Z,42.55
2023-03-15T06:14:55.370Z,42.55
2023-03-15T06:15:55.366Z,42.55
2023-03-15T06:16:55.496Z,42.55
2023-03-15T06:17:55.378Z,42.46
2023-03-15T06:18:55.353Z,42.55
2023-03-15T06:19:55.353Z,42.46
2023-03-15T06:20:55.352Z,42.36
2023-03-15T06:21:55.345Z,42.36
2023-03-15T06:22:55.361Z,42.36
2023-03-15T06:23:55.368Z,42.43
2023-03-15T06:24:55.417Z,42.46
2023-03-15T06:25:55.329Z,42.46
2023-03-15T06:26:55.325Z,42.36
2023-03-15T06:27:55.341Z,42.36
2023-03-15T06:28:55.419Z,42.36
2023-03-15T06:29:55.297Z,42.46
2023-03-15T06:30:55.350Z,42.46
2023-03-15T06:31:55.288Z,42.36
2023-03-15T06:32:55.377Z,42.36
2023-03-15T06:33:55.288Z,42.55
2023-03-15T06:34:55.278Z,42.26
2023-03-15T06:35:55.290Z,42.36
2023-03-15T06:36:55.281Z,42.46
2023-03-15T06:37:55.305Z,42.26
2023-03-15T06:38:55.308Z,42.36
2023-03-15T06:39:55.279Z,42.26
2023-03-15T06:40:55.285Z,42.26
2023-03-15T06:41:55.250Z,42.36
2023-03-15T06:42:55.244Z,42.36
2023-03-15T06:43:55.255Z,42.36
2023-03-15T06:44:55.253Z,42.55
2023-03-15T06:45:55.518Z,42.36
2023-03-15T06:48:28.279Z,42.26
2023-03-15T06:49:28.250Z,42.36
2023-03-15T06:50:34.438Z,42.26
2023-03-15T06:51:28.277Z,42.19
2023-03-15T06:52:28.265Z,42.19
2023-03-15T06:53:28.271Z,42.28
2023-03-15T06:54:28.254Z,42.19
2023-03-15T06:55:28.281Z,42.19
2023-03-15T06:56:28.261Z,42.19
2023-03-15T06:57:30.050Z,42.09
2023-03-15T06:58:28.269Z,42.19
2023-03-15T06:59:28.297Z,42.19
2023-03-15T07:00:28.242Z,42.19
2023-03-15T07:01:28.334Z,42.09
2023-03-15T07:02:28.297Z,41.89
2023-03-15T07:03:28.230Z,42.09
2023-03-15T07:04:28.219Z,42.19
2023-03-15T07:05:28.228Z,42.09
2023-03-15T07:06:28.237Z,42.09
2023-03-15T07:08:28.274Z,42.09
2023-03-15T07:09:28.182Z,41.89
2023-03-15T07:10:28.221Z,42.02
2023-03-15T07:11:28.194Z,42.02
2023-03-15T07:12:28.186Z,41.92
2023-03-15T07:13:28.202Z,41.92
2023-03-15T07:14:28.157Z,42.02
2023-03-15T07:15:28.208Z,41.92
2023-03-15T07:16:28.181Z,42.30
2023-03-15T07:17:28.145Z,41.82
2023-03-15T07:18:28.151Z,42.02
2023-03-15T07:19:28.148Z,41.72
2023-03-15T07:20:28.149Z,41.82
2023-03-15T07:21:28.145Z,42.11
2023-03-15T07:22:28.167Z,41.72
2023-03-15T07:23:28.126Z,41.75
2023-03-15T07:24:28.125Z,41.84
2023-03-15T07:25:28.128Z,41.75
2023-03-15T07:26:28.131Z,41.84
2023-03-15T07:27:28.138Z,41.94
2023-03-15T07:28:28.187Z,41.55
2023-03-15T07:29:28.109Z,41.84
2023-03-15T07:30:28.156Z,41.94
2023-03-15T07:31:28.189Z,41.94
2023-03-15T07:32:28.323Z,41.94
2023-03-15T07:33:28.162Z,41.94
2023-03-15T07:34:28.092Z,41.75
2023-03-15T07:35:28.124Z,41.55
2023-03-15T07:36:28.096Z,41.65
2023-03-15T07:37:28.091Z,42.03
2023-03-15T07:38:28.074Z,41.75
2023-03-15T07:39:28.079Z,41.77
2023-03-15T07:40:28.095Z,41.67
2023-03-15T07:41:28.071Z,41.77
2023-03-15T07:42:28.090Z,41.77
2023-03-15T07:43:28.139Z,41.86
2023-03-15T07:44:28.081Z,41.57
2023-03-15T07:45:28.086Z,41.48
2023-03-15T07:46:28.085Z,41.48
2023-03-15T07:47:28.069Z,41.67
2023-03-15T07:48:28.044Z,41.48
2023-03-15T07:49:28.037Z,41.67
2023-03-15T07:50:28.096Z,41.57
2023-03-15T07:51:28.058Z,41.67
2023-03-15T07:52:28.133Z,41.67
2023-03-15T07:53:28.048Z,41.67
2023-03-15T07:54:28.869Z,41.60
2023-03-15T07:55:28.074Z,41.69
2023-03-15T07:56:28.016Z,41.69
2023-03-15T07:57:29.017Z,41.50
2023-03-15T07:58:28.031Z,41.50
2023-03-15T07:59:28.040Z,41.30
2023-03-15T08:00:28.045Z,41.60
2023-03-15T08:01:28.015Z,41.40
2023-03-15T08:02:30.197Z,41.50
2023-03-15T08:03:28.070Z,41.40
2023-03-15T08:04:28.005Z,41.30
2023-03-15T08:05:29.190Z,41.50
2023-03-15T08:06:28.121Z,41.20
2023-03-15T08:07:27.985Z,41.40
2023-03-15T08:08:27.990Z,41.11
2023-03-15T08:09:28.000Z,41.30
2023-03-15T08:10:28.004Z,41.30
2023-03-15T08:11:28.012Z,41.40
2023-03-15T08:13:27.976Z,41.40
2023-03-15T08:14:27.997Z,41.33
2023-03-15T08:15:28.000Z,41.33
2023-03-15T08:16:28.061Z,41.23
2023-03-15T08:17:27.971Z,41.42
2023-03-15T08:18:27.972Z,41.33
2023-03-15T08:19:27.966Z,41.13
2023-03-15T08:20:29.814Z,41.33
2023-03-15T08:21:27.974Z,41.03
2023-03-15T08:22:27.995Z,40.94
2023-03-15T08:23:27.957Z,40.94
2023-03-15T08:24:27.953Z,40.94
2023-03-15T08:25:27.949Z,40.94
2023-03-15T08:26:27.983Z,40.94
2023-03-15T08:28:27.970Z,40.94
2023-03-15T08:29:27.948Z,41.03
2023-03-15T08:30:28.099Z,41.03
2023-03-15T08:31:28.062Z,41.03
2023-03-15T08:32:27.982Z,41.05
2023-03-15T08:33:27.953Z,41.25
2023-03-15T08:34:27.937Z,41.25
2023-03-15T08:35:28.015Z,41.15
2023-03-15T08:36:28.499Z,41.25
2023-03-15T08:37:28.984Z,41.05
2023-03-15T08:38:28.033Z,40.96
2023-03-15T08:39:28.035Z,40.86
2023-03-15T08:40:28.385Z,40.77
2023-03-15T08:41:28.082Z,40.96
2023-03-15T08:42:27.963Z,40.96
2023-03-15T08:43:27.940Z,40.96
2023-03-15T08:44:28.200Z,41.05
2023-03-15T08:45:27.948Z,41.05
2023-03-15T08:46:28.085Z,41.35
2023-03-15T08:47:27.967Z,40.96
2023-03-15T08:48:27.908Z,40.96
2023-03-15T08:49:27.907Z,41.05
2023-03-15T08:50:27.957Z,40.86
2023-03-15T08:51:27.926Z,41.08
2023-03-15T08:52:27.933Z,40.98
2023-03-15T08:53:27.923Z,40.98
2023-03-15T08:54:28.506Z,40.98
2023-03-15T08:55:27.888Z,40.98
2023-03-15T08:56:27.893Z,40.88
2023-03-15T08:57:27.921Z,40.88
2023-03-15T08:58:27.902Z,40.98
2023-03-15T08:59:32.318Z,40.98
2023-03-15T09:00:27.935Z,40.98
2023-03-15T09:01:27.890Z,41.08
2023-03-15T09:02:27.976Z,40.69
2023-03-15T09:03:27.884Z,40.69
2023-03-15T09:04:28.010Z,41.08
2023-03-15T09:05:27.903Z,41.08
2023-03-15T09:06:27.894Z,40.78
2023-03-15T09:07:27.867Z,40.78
2023-03-15T09:08:27.868Z,40.69
2023-03-15T09:09:27.872Z,40.78
2023-03-15T09:10:27.895Z,40.69
2023-03-15T09:11:27.962Z,40.78
2023-03-15T09:12:27.866Z,40.69
2023-03-15T09:13:27.865Z,40.88
2023-03-15T09:14:27.882Z,40.78
2023-03-15T09:15:27.872Z,40.88
2023-03-15T09:16:28.117Z,40.78
2023-03-15T09:17:27.892Z,40.90
2023-03-15T09:18:27.897Z,40.90
2023-03-15T09:19:27.891Z,40.78
2023-03-15T09:20:27.847Z,40.90
2023-03-15T09:21:27.855Z,40.81
2023-03-15T09:22:38.974Z,40.81
2023-03-15T09:23:27.867Z,40.90
2023-03-15T09:24:27.879Z,40.81
2023-03-15T09:25:27.851Z,41.00
2023-03-15T09:26:27.862Z,40.81
2023-03-15T09:27:27.920Z,41.09
2023-03-15T09:28:27.866Z,41.09
2023-03-15T09:30:27.864Z,40.90
2023-03-15T09:31:27.974Z,40.61
2023-03-15T09:32:27.925Z,40.71
2023-03-15T09:33:27.835Z,40.90
2023-03-15T09:34:33.286Z,40.81
2023-03-15T09:35:27.906Z,40.81
2023-03-15T09:36:27.853Z,40.81
2023-03-15T09:37:27.860Z,40.71
2023-03-15T09:38:27.841Z,40.61
2023-03-15T09:39:27.848Z,40.92
2023-03-15T09:41:27.846Z,40.42
2023-03-15T09:42:27.860Z,40.44
2023-03-15T09:43:27.845Z,40.53
2023-03-15T09:44:27.857Z,40.53
2023-03-15T09:45:27.841Z,40.73
2023-03-15T09:46:28.091Z,40.53
2023-03-15T09:47:27.830Z,40.53
2023-03-15T09:48:27.952Z,40.44
2023-03-15T09:51:00.925Z,40.53
2023-03-15T09:52:00.853Z,40.53
2023-03-15T09:53:00.868Z,40.53
2023-03-15T09:55:00.851Z,40.53
2023-03-15T09:56:00.867Z,40.44
2023-03-15T09:57:00.855Z,40.53
2023-03-15T09:58:00.868Z,40.44
2023-03-15T09:59:00.873Z,40.34
2023-03-15T10:00:00.846Z,40.34
2023-03-15T10:01:00.860Z,40.34
2023-03-15T10:02:00.877Z,40.46
2023-03-15T10:13:20.328Z,40.17
2023-03-15T10:14:20.296Z,40.26
2023-03-15T10:15:20.281Z,40.26
2023-03-15T10:16:20.320Z,40.46
2023-03-15T10:17:20.248Z,40.26
2023-03-15T10:18:20.269Z,40.26
2023-03-15T10:19:20.255Z,40.17
2023-03-15T10:20:20.259Z,40.36
2023-03-15T10:22:20.272Z,40.26
2023-03-15T10:23:20.335Z,40.26
2023-03-15T10:24:20.239Z,40.17
2023-03-15T10:25:20.261Z,40.26
2023-03-15T10:26:20.357Z,40.26
2023-03-15T10:27:20.281Z,40.19
2023-03-15T10:28:21.533Z,40.38
2023-03-15T10:29:20.530Z,40.28
2023-03-15T10:30:20.492Z,40.48
2023-03-15T10:31:22.906Z,40.28
2023-03-15T10:32:20.293Z,40.19
2023-03-15T10:33:20.318Z,40.28
2023-03-15T10:34:20.324Z,40.28
2023-03-15T10:35:20.261Z,40.48
2023-03-15T10:36:20.340Z,40.38
2023-03-15T10:37:20.256Z,40.28
2023-03-15T10:38:20.254Z,40.31
2023-03-15T10:39:20.234Z,40.40
2023-03-15T10:40:20.283Z,40.01
2023-03-15T10:41:28.490Z,40.11
2023-03-15T10:42:20.280Z,40.21
2023-03-15T10:43:20.251Z,40.31
2023-03-15T10:44:20.261Z,40.40
2023-03-15T10:45:20.301Z,40.31
2023-03-15T10:46:20.414Z,40.40
2023-03-15T10:47:24.167Z,39.92
2023-03-15T10:48:20.411Z,40.01
2023-03-15T10:49:20.253Z,40.01
2023-03-15T10:50:20.290Z,39.72
2023-03-15T10:51:22.364Z,39.92
2023-03-15T10:52:20.277Z,39.94
2023-03-15T10:53:20.248Z,39.74
2023-03-15T10:54:20.275Z,39.84
2023-03-15T10:55:20.248Z,40.03
2023-03-15T10:56:20.243Z,40.03
2023-03-15T10:57:20.269Z,40.13
2023-03-15T10:58:20.273Z,39.84
2023-03-15T10:59:20.258Z,39.74
2023-03-15T11:00:20.373Z,39.74
2023-03-15T11:01:20.327Z,39.45
2023-03-15T11:02:20.357Z,39.47
2023-03-15T11:03:20.279Z,39.67
2023-03-15T11:04:20.246Z,39.57
2023-03-15T11:05:20.260Z,39.57
2023-03-15T11:06:20.262Z,39.57
2023-03-15T11:07:20.276Z,39.47
2023-03-15T11:08:20.262Z,39.47
2023-03-15T11:09:20.272Z,39.49
2023-03-15T11:10:20.276Z,39.67
2023-03-15T11:11:20.321Z,39.37
2023-03-15T11:12:20.262Z,39.37
2023-03-15T11:13:20.268Z,39.28
2023-03-15T11:14:20.267Z,39.57
2023-03-15T11:15:20.288Z,39.37
2023-03-15T11:16:20.312Z,39.18
2023-03-15T11:17:20.307Z,39.08
2023-03-15T11:18:20.294Z,39.28
2023-03-15T11:19:20.275Z,39.28
2023-03-15T11:20:20.302Z,39.37
2023-03-15T11:21:20.293Z,39.37
2023-03-15T11:22:20.269Z,39.26
2023-03-15T11:23:20.270Z,39.18
2023-03-15T11:24:20.319Z,39.16
2023-03-15T11:25:20.309Z,39.16
2023-03-15T11:26:31.514Z,39.16
2023-03-15T11:27:20.322Z,39.06
2023-03-15T11:28:20.378Z,39.16
2023-03-15T11:29:20.270Z,38.96
2023-03-15T11:30:20.305Z,38.96
2023-03-15T11:31:20.331Z,38.96
2023-03-15T11:32:20.287Z,39.06
2023-03-15T11:33:20.303Z,38.96
2023-03-15T11:34:20.289Z,39.06
2023-03-15T11:35:20.329Z,38.96
2023-03-15T11:36:20.314Z,38.87
2023-03-15T11:37:20.319Z,38.96
2023-03-15T11:38:20.285Z,39.06
2023-03-15T11:39:20.299Z,38.87
2023-03-15T11:40:20.286Z,39.06
2023-03-15T11:41:20.288Z,38.96
2023-03-15T11:42:20.320Z,38.96
2023-03-15T11:43:20.288Z,38.95
2023-03-15T11:44:20.342Z,39.04
2023-03-15T11:45:20.298Z,39.04
2023-03-15T11:46:20.290Z,38.95
2023-03-15T11:47:20.309Z,39.04
2023-03-15T11:48:20.295Z,38.95
2023-03-15T11:49:20.298Z,39.03
2023-03-15T11:50:20.300Z,38.93
2023-03-15T11:51:20.295Z,38.93
2023-03-15T11:52:20.299Z,39.03
2023-03-15T11:53:20.297Z,39.03
2023-03-15T11:55:20.303Z,39.03
2023-03-15T11:56:20.309Z,39.03
2023-03-15T11:57:20.280Z,38.93
2023-03-15T11:58:20.289Z,38.95
2023-03-15T11:59:20.303Z,38.76
2023-03-15T12:00:20.371Z,38.95
2023-03-15T12:01:20.286Z,38.95
2023-03-15T12:02:20.367Z,39.04
2023-03-15T12:03:20.353Z,38.95
2023-03-15T12:04:20.284Z,39.04
2023-03-15T12:05:20.308Z,38.85
2023-03-15T12:06:20.276Z,38.76
2023-03-15T12:07:20.433Z,38.85
2023-03-15T12:08:20.302Z,39.04
2023-03-15T12:09:20.276Z,38.95
2023-03-15T12:10:20.368Z,38.95
2023-03-15T12:11:20.282Z,38.95
2023-03-15T12:12:20.329Z,38.95
2023-03-15T12:13:20.285Z,39.04
2023-03-15T12:14:20.287Z,39.04
2023-03-15T12:15:20.477Z,38.93
2023-03-15T12:16:20.427Z,38.93
2023-03-15T12:17:21.366Z,38.83
2023-03-15T12:18:20.360Z,38.93
2023-03-15T12:19:20.302Z,38.85
2023-03-15T12:20:20.313Z,38.37
2023-03-15T12:21:20.302Z,38.48
2023-03-15T12:22:20.303Z,38.19
2023-03-15T12:23:20.327Z,38.12
2023-03-15T12:24:20.304Z,38.12
2023-03-15T12:25:20.282Z,38.42
2023-03-15T12:26:20.301Z,38.32
2023-03-15T12:27:20.277Z,38.25
2023-03-15T12:28:20.287Z,38.06
2023-03-15T12:29:20.339Z,38.37
2023-03-15T12:30:20.291Z,37.98
2023-03-15T12:31:20.443Z,38.39
2023-03-15T12:32:20.281Z,37.99
2023-03-15T12:33:20.325Z,37.82
2023-03-15T12:34:20.295Z,37.82
2023-03-15T12:35:20.289Z,37.45
2023-03-15T12:36:20.292Z,37.84
2023-03-15T12:37:20.329Z,37.95
2023-03-15T12:38:20.297Z,37.46
2023-03-15T12:39:20.351Z,37.46
2023-03-15T12:40:20.313Z,37.54
2023-03-15T12:41:20.345Z,37.84
2023-03-15T12:42:20.309Z,37.74
2023-03-15T12:43:20.324Z,37.84
2023-03-15T12:44:20.330Z,37.82
2023-03-15T12:45:20.330Z,37.82
2023-03-15T12:46:20.415Z,37.72
2023-03-15T12:47:20.382Z,37.51
2023-03-15T12:48:20.319Z,37.90
2023-03-15T12:49:20.311Z,37.90
2023-03-15T12:50:20.330Z,37.90
2023-03-15T12:51:20.357Z,37.88
2023-03-15T12:52:20.327Z,37.98
2023-03-15T12:53:20.340Z,37.88
2023-03-15T12:54:20.378Z,37.96
2023-03-15T12:55:20.353Z,37.78
2023-03-15T12:56:20.337Z,37.49
2023-03-15T12:57:20.328Z,37.39
2023-03-15T12:58:20.376Z,37.39
2023-03-15T12:59:20.340Z,37.39
2023-03-15T13:00:20.360Z,37.41
2023-03-15T13:01:20.360Z,37.02
2023-03-15T13:02:23.050Z,37.30
2023-03-15T13:03:20.385Z,37.30
2023-03-15T13:04:20.351Z,37.39
2023-03-15T13:05:20.358Z,37.41
2023-03-15T13:06:20.349Z,37.24
2023-03-15T13:07:20.364Z,36.65
2023-03-15T13:08:20.380Z,36.96
2023-03-15T13:09:20.392Z,36.69
2023-03-15T13:12:53.473Z,36.32
2023-03-15T13:13:53.466Z,36.12
2023-03-15T13:14:53.490Z,36.32
2023-03-15T13:15:53.508Z,36.69
2023-03-15T13:16:53.459Z,36.90
2023-03-15T13:17:53.471Z,36.43
2023-03-15T13:18:53.474Z,36.43
2023-03-15T13:19:53.505Z,35.86
2023-03-15T13:20:53.486Z,35.96
2023-03-15T13:21:53.490Z,36.18
2023-03-15T13:22:55.775Z,35.86
2023-03-15T13:23:53.504Z,36.43
2023-03-15T13:24:53.536Z,36.24
2023-03-15T13:25:53.489Z,36.71
2023-03-15T13:26:53.493Z,36.80
2023-03-15T13:27:53.498Z,36.79
2023-03-15T13:28:53.495Z,36.79
2023-03-15T13:29:53.600Z,36.57
2023-03-15T13:30:53.696Z,36.79
2023-03-15T13:31:53.495Z,36.51
2023-03-15T13:32:53.607Z,36.14
2023-03-15T13:33:53.522Z,35.96
2023-03-15T13:34:53.511Z,36.06
2023-03-15T13:35:54.214Z,35.67
2023-03-15T13:36:53.545Z,35.69
2023-03-15T13:37:53.525Z,35.78
2023-03-15T13:38:53.529Z,35.78
2023-03-15T13:39:53.538Z,35.88
2023-03-15T13:40:53.554Z,35.59
2023-03-15T13:41:53.539Z,35.98
2023-03-15T13:42:53.531Z,35.78
2023-03-15T13:43:53.532Z,35.78
2023-03-15T13:44:53.556Z,35.88
2023-03-15T13:45:53.554Z,35.78
2023-03-15T13:46:53.588Z,35.69
2023-03-15T13:47:53.560Z,35.77
2023-03-15T13:48:53.560Z,36.06
2023-03-15T13:49:53.574Z,35.67
2023-03-15T13:50:53.556Z,35.94
2023-03-15T13:51:53.596Z,35.94
2023-03-15T13:52:53.563Z,36.51
2023-03-15T13:53:53.578Z,36.30
2023-03-15T13:54:53.569Z,36.30
2023-03-15T13:55:53.578Z,36.47
2023-03-15T13:56:53.620Z,36.38
2023-03-15T13:57:53.577Z,36.38
2023-03-15T13:58:53.587Z,36.26
2023-03-15T13:59:53.604Z,36.36
2023-03-15T14:00:53.584Z,36.38
2023-03-15T14:01:53.806Z,35.61
2023-03-15T14:02:53.709Z,36.20
2023-03-15T14:03:53.617Z,35.63
2023-03-15T14:04:53.609Z,35.55
2023-03-15T14:05:53.586Z,35.36
2023-03-15T14:06:53.645Z,35.38
2023-03-15T14:07:53.590Z,35.28
2023-03-15T14:08:53.598Z,35.10
2023-03-15T14:09:55.285Z,35.10
2023-03-15T14:10:53.609Z,35.31
2023-03-15T14:11:53.626Z,35.02
2023-03-15T14:12:53.636Z,34.84
2023-03-15T14:13:53.616Z,34.94
2023-03-15T14:14:53.645Z,34.65
2023-03-15T14:15:53.700Z,34.67
2023-03-15T14:17:04.953Z,34.77
2023-03-15T14:17:53.637Z,34.58
2023-03-15T14:18:53.630Z,34.48
2023-03-15T14:19:53.683Z,34.39
2023-03-15T14:20:53.640Z,34.48
2023-03-15T14:21:53.659Z,34.48
2023-03-15T14:22:53.652Z,34.58
2023-03-15T14:23:53.650Z,34.58
2023-03-15T14:24:53.666Z,34.58
2023-03-15T14:25:53.662Z,34.11
2023-03-15T14:26:53.719Z,34.21
2023-03-15T14:27:53.672Z,34.11
2023-03-15T14:28:53.685Z,33.92
2023-03-15T14:29:53.681Z,33.84
2023-03-15T14:30:53.689Z,33.84
2023-03-15T14:31:53.706Z,33.94
2023-03-15T14:32:53.806Z,34.13
2023-03-15T14:33:53.728Z,34.05
2023-03-15T14:34:53.708Z,33.85
2023-03-15T14:35:54.353Z,33.85
2023-03-15T14:36:53.720Z,33.87
2023-03-15T14:37:53.725Z,33.77
2023-03-15T14:38:53.737Z,33.77
2023-03-15T14:39:53.728Z,33.48
2023-03-15T14:40:53.747Z,33.38
2023-03-15T14:41:53.750Z,33.87
2023-03-15T14:42:53.820Z,33.77
2023-03-15T14:43:53.794Z,33.67
2023-03-15T14:44:53.798Z,33.69
2023-03-15T14:45:53.815Z,33.77
2023-03-15T14:46:53.766Z,33.59
2023-03-15T14:47:57.113Z,33.89
2023-03-15T14:48:53.770Z,33.89
2023-03-15T14:49:53.778Z,33.59
2023-03-15T14:50:53.804Z,33.79
2023-03-15T14:51:53.782Z,33.89
2023-03-15T14:52:53.802Z,33.69
2023-03-15T14:53:53.797Z,33.50
2023-03-15T14:54:53.818Z,33.67
2023-03-15T14:55:53.827Z,33.69
2023-03-15T14:56:53.822Z,33.69
2023-03-15T14:57:53.852Z,33.58
2023-03-15T14:58:53.833Z,33.87
2023-03-15T14:59:53.845Z,33.48
2023-03-15T15:00:54.031Z,33.38
2023-03-15T15:01:53.899Z,33.67
2023-03-15T15:02:53.848Z,33.36
2023-03-15T15:03:53.853Z,33.56
2023-03-15T15:05:14.875Z,33.75
2023-03-15T15:05:53.888Z,33.74
2023-03-15T15:06:53.891Z,33.94
2023-03-15T15:07:53.883Z,33.64
2023-03-15T15:08:53.893Z,33.72
2023-03-15T15:09:53.903Z,33.72
2023-03-15T15:10:53.925Z,33.90
2023-03-15T15:11:53.908Z,34.09
2023-03-15T15:13:05.608Z,33.90
2023-03-15T15:13:53.939Z,33.79
2023-03-15T15:14:53.996Z,34.16
2023-03-15T15:15:56.379Z,34.16
2023-03-15T15:16:54.075Z,34.44
2023-03-15T15:17:53.951Z,34.53
2023-03-15T15:18:53.934Z,34.91
2023-03-15T15:19:53.927Z,34.81
2023-03-15T15:20:53.930Z,34.79
2023-03-15T15:21:53.951Z,35.08
2023-03-15T15:22:53.940Z,35.06
2023-03-15T15:24:00.500Z,34.88
2023-03-15T15:24:53.952Z,34.76
2023-03-15T15:25:54.063Z,35.34
2023-03-15T15:26:53.956Z,35.33
2023-03-15T15:27:53.950Z,35.23
2023-03-15T15:28:53.962Z,35.02
2023-03-15T15:29:53.982Z,35.21
2023-03-15T15:30:53.986Z,35.50
2023-03-15T15:31:54.018Z,35.49
2023-03-15T15:32:54.060Z,35.68
2023-03-15T15:33:53.990Z,35.68
2023-03-15T15:34:53.998Z,35.76
2023-03-15T15:35:54.047Z,35.96
2023-03-15T15:36:53.989Z,35.96
2023-03-15T15:37:53.976Z,35.94
2023-03-15T15:38:53.998Z,35.55
2023-03-15T15:39:53.986Z,35.84
2023-03-15T15:40:53.996Z,35.92
2023-03-15T15:41:54.003Z,35.63
2023-03-15T15:42:54.006Z,35.92
2023-03-15T15:43:54.007Z,36.19
2023-03-15T15:44:53.996Z,36.19
2023-03-15T15:45:54.030Z,36.00
2023-03-15T15:46:53.994Z,36.18
2023-03-15T15:47:53.993Z,36.27
2023-03-15T15:48:54.052Z,36.36
2023-03-15T15:49:53.991Z,36.25
2023-03-15T15:50:54.009Z,36.35
2023-03-15T15:51:54.011Z,36.25
2023-03-15T15:52:54.014Z,36.16
2023-03-15T15:53:53.994Z,36.04
2023-03-15T15:54:53.995Z,36.14
2023-03-15T15:55:54.005Z,36.14
2023-03-15T15:56:53.999Z,36.33
2023-03-15T15:57:54.024Z,36.43
2023-03-15T15:58:54.012Z,36.60
2023-03-15T15:59:54.012Z,36.60
2023-03-15T16:00:53.999Z,36.80
2023-03-15T16:12:33.574Z,36.46
2023-03-15T16:13:33.525Z,36.55
2023-03-15T16:14:33.532Z,36.46
2023-03-15T16:15:33.647Z,36.36
2023-03-15T16:16:33.515Z,36.44
2023-03-15T16:17:33.524Z,36.63
2023-03-15T16:18:33.527Z,36.92
2023-03-15T16:19:33.532Z,36.82
2023-03-15T16:20:33.517Z,36.92
2023-03-15T16:21:33.639Z,37.12
2023-03-15T16:22:33.501Z,36.80
2023-03-15T16:23:33.516Z,36.80
2023-03-15T16:24:35.977Z,37.10
2023-03-15T16:25:33.501Z,37.00
2023-03-15T16:26:33.507Z,37.29
2023-03-15T16:27:33.815Z,37.19
2023-03-15T16:29:33.499Z,37.00
2023-03-15T16:30:33.483Z,37.46
2023-03-15T16:31:33.537Z,37.08
2023-03-15T16:32:43.858Z,36.88
2023-03-15T16:33:33.491Z,37.17
2023-03-15T16:34:33.472Z,37.27
2023-03-15T16:35:33.510Z,37.17
2023-03-15T16:36:33.470Z,37.46
2023-03-15T16:37:33.505Z,37.56
2023-03-15T16:38:33.462Z,37.27
2023-03-15T16:39:33.460Z,37.27
2023-03-15T16:40:33.449Z,37.35
2023-03-15T16:41:33.452Z,37.45
2023-03-15T16:42:33.457Z,37.35
2023-03-15T16:43:33.457Z,37.63
2023-03-15T16:44:33.463Z,37.45
2023-03-15T16:45:33.480Z,37.63
2023-03-15T16:46:33.468Z,37.83
2023-03-15T16:47:33.450Z,37.54
2023-03-15T16:48:33.452Z,37.63
2023-03-15T16:49:33.427Z,37.63
2023-03-15T16:50:33.433Z,37.54
2023-03-15T16:51:33.424Z,37.54
2023-03-15T16:52:33.430Z,37.23
2023-03-15T16:53:33.436Z,37.43
2023-03-15T16:54:40.884Z,37.54
2023-03-15T16:55:33.429Z,37.73
2023-03-15T16:56:33.423Z,37.71
2023-03-15T16:57:33.424Z,37.71
2023-03-15T16:58:33.444Z,37.81
2023-03-15T16:59:33.415Z,37.62
2023-03-15T17:00:33.421Z,37.81
2023-03-15T17:01:33.459Z,37.52
2023-03-15T17:02:33.392Z,37.81
2023-03-15T17:03:33.431Z,37.52
2023-03-15T17:04:33.414Z,37.52
2023-03-15T17:05:33.425Z,37.71
2023-03-15T17:06:33.382Z,37.71
2023-03-15T17:07:33.424Z,37.91
2023-03-15T17:08:33.392Z,37.62
2023-03-15T17:09:33.384Z,37.89
2023-03-15T17:10:33.381Z,37.81
2023-03-15T17:11:33.375Z,37.71
2023-03-15T17:12:33.364Z,37.70
2023-03-15T17:13:33.372Z,37.98
2023-03-15T17:14:33.361Z,37.60
2023-03-15T17:15:33.361Z,37.79
2023-03-15T17:16:33.457Z,37.70
2023-03-15T17:17:33.689Z,37.70
2023-03-15T17:18:33.442Z,37.79
2023-03-15T17:19:33.380Z,37.79
2023-03-15T17:20:33.348Z,37.98
2023-03-15T17:21:33.353Z,37.79
2023-03-15T17:22:33.335Z,37.79
2023-03-15T17:23:33.332Z,38.08
2023-03-15T17:24:33.327Z,38.08
2023-03-15T17:25:33.331Z,37.89
2023-03-15T17:26:33.333Z,37.70